createdAt,value
2019-03-17T00:01:35.217Z,3.50
2019-03-17T00:04:04.416Z,4.17
2019-03-17T00:06:33.132Z,4.47
2019-03-17T00:09:02.081Z,4.60
2019-03-17T00:11:31.098Z,4.23
2019-03-17T00:13:59.852Z,4.23
2019-03-17T00:16:28.508Z,4.07
2019-03-17T00:18:57.452Z,4.47
2019-03-17T00:21:26.346Z,3.83
2019-03-17T00:23:54.954Z,4.27
2019-03-17T00:26:23.597Z,3.73
2019-03-17T00:28:52.493Z,4.53
2019-03-17T00:31:24.168Z,4.30
2019-03-17T00:33:51.725Z,4.70
2019-03-17T00:36:20.929Z,5.00
2019-03-17T00:38:49.818Z,4.73
2019-03-17T00:41:18.702Z,4.40
2019-03-17T00:43:47.597Z,4.47
2019-03-17T00:46:16.226Z,5.00
2019-03-17T00:48:45.702Z,4.00
2019-03-17T00:51:14.657Z,4.40
2019-03-17T00:53:43.573Z,5.00
2019-03-17T00:56:12.174Z,4.63
2019-03-17T00:58:41.151Z,5.13
2019-03-17T01:01:10.090Z,4.73
2019-03-17T01:03:38.715Z,4.77
2019-03-17T01:06:08.032Z,4.60
2019-03-17T01:08:37.338Z,4.77
2019-03-17T01:11:06.024Z,3.67
2019-03-17T01:13:35.313Z,4.57
2019-03-17T01:16:04.719Z,4.83
2019-03-17T01:18:33.630Z,4.73
2019-03-17T01:21:03.222Z,4.67
2019-03-17T01:23:32.415Z,4.20
2019-03-17T01:26:01.415Z,5.23
2019-03-17T01:28:30.316Z,4.43
2019-03-17T01:30:59.295Z,4.77
2019-03-17T01:33:28.595Z,4.67
2019-03-17T01:35:57.591Z,4.80
2019-03-17T01:38:26.785Z,4.93
2019-03-17T01:40:55.393Z,4.40
2019-03-17T01:43:24.369Z,4.87
2019-03-17T01:45:53.567Z,4.27
2019-03-17T01:48:22.453Z,5.10
2019-03-17T01:50:51.659Z,4.20
2019-03-17T01:53:20.544Z,3.97
2019-03-17T01:55:49.437Z,3.73
2019-03-17T01:58:18.114Z,5.10
2019-03-17T02:00:47.331Z,4.90
2019-03-17T02:03:15.935Z,4.50
2019-03-17T02:05:44.554Z,4.43
2019-03-17T02:08:13.799Z,3.97
2019-03-17T02:10:42.404Z,4.03
2019-03-17T02:13:11.272Z,4.13
2019-03-17T02:15:40.156Z,3.70
2019-03-17T02:18:08.796Z,4.13
2019-03-17T02:20:37.483Z,4.40
2019-03-17T02:23:06.053Z,4.63
2019-03-17T02:25:34.719Z,3.93
2019-03-17T02:28:04.113Z,4.47
2019-03-17T02:30:33.434Z,4.07
2019-03-17T02:33:02.070Z,4.20
2019-03-17T02:35:38.852Z,3.60
2019-03-17T02:38:02.273Z,4.03
2019-03-17T02:40:31.425Z,4.80
2019-03-17T02:43:00.628Z,4.20
2019-03-17T02:45:29.595Z,4.57
2019-03-17T02:47:58.517Z,3.93
2019-03-17T02:50:27.400Z,5.10
2019-03-17T02:52:56.399Z,3.90
2019-03-17T02:55:25.290Z,4.60
2019-03-17T02:57:53.917Z,4.53
2019-03-17T03:00:22.871Z,4.50
2019-03-17T03:02:51.762Z,4.33
2019-03-17T03:05:20.654Z,4.50
2019-03-17T03:07:49.272Z,4.40
2019-03-17T03:10:18.339Z,3.87
2019-03-17T03:12:47.224Z,3.77
2019-03-17T03:15:15.862Z,4.37
2019-03-17T03:17:44.536Z,4.57
2019-03-17T03:20:13.482Z,4.10
2019-03-17T03:22:42.683Z,4.93
2019-03-17T03:25:11.615Z,4.00
2019-03-17T03:27:40.879Z,4.00
2019-03-17T03:30:10.064Z,4.30
2019-03-17T03:32:38.973Z,4.30
2019-03-17T03:35:08.111Z,5.47
2019-03-17T03:37:37.060Z,4.70
2019-03-17T03:40:05.901Z,4.73
2019-03-17T03:42:34.949Z,4.40
2019-03-17T03:45:04.863Z,4.23
2019-03-17T03:47:33.747Z,4.63
2019-03-17T03:50:02.346Z,4.37
2019-03-17T03:52:31.653Z,3.70
2019-03-17T03:55:00.630Z,4.47
2019-03-17T03:57:29.234Z,4.73
2019-03-17T03:59:58.199Z,3.70
2019-03-17T04:02:26.825Z,3.43
2019-03-17T04:04:56.394Z,3.53
2019-03-17T04:07:25.385Z,3.80
2019-03-17T04:09:54.794Z,4.03
2019-03-17T04:12:23.522Z,4.20
2019-03-17T04:14:52.775Z,3.40
2019-03-17T04:17:22.078Z,4.20
2019-03-17T04:19:51.049Z,3.73
2019-03-17T04:22:20.033Z,4.10
2019-03-17T04:24:49.264Z,3.60
2019-03-17T04:27:18.255Z,3.70
2019-03-17T04:29:47.469Z,3.70
2019-03-17T04:32:16.350Z,3.77
2019-03-17T04:34:45.543Z,3.90
2019-03-17T04:37:14.723Z,3.80
2019-03-17T04:39:43.953Z,3.27
2019-03-17T04:42:12.574Z,3.43
2019-03-17T04:44:41.824Z,3.00
2019-03-17T04:47:11.023Z,3.30
2019-03-17T04:49:40.022Z,3.10
2019-03-17T04:52:08.642Z,3.53
2019-03-17T04:54:37.903Z,3.30
2019-03-17T04:57:06.577Z,3.47
2019-03-17T04:59:35.186Z,3.60
2019-03-17T05:02:04.288Z,3.80
2019-03-17T05:04:33.575Z,3.57
2019-03-17T05:07:02.463Z,2.60
2019-03-17T05:09:31.116Z,3.10
2019-03-17T05:11:59.726Z,2.50
2019-03-17T05:14:28.629Z,3.13
2019-03-17T05:16:57.517Z,3.30
2019-03-17T05:19:26.129Z,3.30
2019-03-17T05:21:55.100Z,3.13
2019-03-17T05:24:24.021Z,3.73
2019-03-17T05:26:52.987Z,2.53
2019-03-17T05:29:21.644Z,2.87
2019-03-17T05:31:50.556Z,3.70
2019-03-17T05:34:19.770Z,3.57
2019-03-17T05:36:48.373Z,2.73
2019-03-17T05:39:17.015Z,3.00
2019-03-17T05:41:45.896Z,3.30
2019-03-17T05:44:14.812Z,3.50
2019-03-17T05:46:43.552Z,3.30
2019-03-17T05:49:12.141Z,3.53
2019-03-17T05:51:40.803Z,3.40
2019-03-17T05:54:09.783Z,3.03
2019-03-17T05:56:38.762Z,3.10
2019-03-17T05:59:07.743Z,3.10
2019-03-17T06:01:36.413Z,3.40
2019-03-17T06:04:05.029Z,3.17
2019-03-17T06:06:34.003Z,2.93
2019-03-17T06:09:03.312Z,3.60
2019-03-17T06:11:32.921Z,3.10
2019-03-17T06:14:01.912Z,2.90
2019-03-17T06:16:31.111Z,2.73
2019-03-17T06:19:00.002Z,3.23
2019-03-17T06:21:28.895Z,3.03
2019-03-17T06:23:58.195Z,2.93
2019-03-17T06:26:27.182Z,3.60
2019-03-17T06:28:56.093Z,3.43
2019-03-17T06:31:24.759Z,3.20
2019-03-17T06:33:53.673Z,3.07
2019-03-17T06:36:22.637Z,3.20
2019-03-17T06:38:51.541Z,2.20
2019-03-17T06:41:20.561Z,3.13
2019-03-17T06:43:49.540Z,2.97
2019-03-17T06:46:18.529Z,3.13
2019-03-17T06:48:47.720Z,2.37
2019-03-17T06:51:16.410Z,2.83
2019-03-17T06:53:55.698Z,2.50
2019-03-17T06:56:15.755Z,2.57
2019-03-17T06:58:44.418Z,3.10
2019-03-17T07:01:13.075Z,3.00
2019-03-17T07:03:41.993Z,2.80
2019-03-17T07:06:10.984Z,2.60
2019-03-17T07:08:39.998Z,3.00
2019-03-17T07:11:10.926Z,2.60
2019-03-17T07:13:39.711Z,3.10
2019-03-17T07:16:08.394Z,2.70
2019-03-17T07:18:37.037Z,2.83
2019-03-17T07:21:05.681Z,3.13
2019-03-17T07:23:35.258Z,2.90
2019-03-17T07:26:04.252Z,2.60
2019-03-17T07:28:32.898Z,2.80
2019-03-17T07:31:01.563Z,2.90
2019-03-17T07:33:30.531Z,3.27
2019-03-17T07:35:59.529Z,2.87
2019-03-17T07:38:28.166Z,2.80
2019-03-17T07:40:57.045Z,3.03
2019-03-17T07:43:25.672Z,2.93
2019-03-17T07:45:54.910Z,2.80
2019-03-17T07:48:23.536Z,2.40
2019-03-17T07:50:52.198Z,2.60
2019-03-17T07:53:20.902Z,2.60
2019-03-17T07:55:49.517Z,2.63
2019-03-17T07:58:18.421Z,2.17
2019-03-17T08:00:47.615Z,2.70
2019-03-17T08:03:16.263Z,3.07
2019-03-17T08:05:44.909Z,2.53
2019-03-17T08:08:14.093Z,2.50
2019-03-17T08:10:42.703Z,2.67
2019-03-17T08:13:11.321Z,2.30
2019-03-17T08:15:40.251Z,2.67
2019-03-17T08:18:09.456Z,2.30
2019-03-17T08:20:38.148Z,2.30
2019-03-17T08:23:07.029Z,2.30
2019-03-17T08:25:35.654Z,2.17
2019-03-17T08:28:04.279Z,1.97
2019-03-17T08:30:33.190Z,2.40
2019-03-17T08:33:02.385Z,2.20
2019-03-17T08:35:31.276Z,2.40
2019-03-17T08:38:00.167Z,2.40
2019-03-17T08:40:29.218Z,2.50
2019-03-17T08:42:58.465Z,2.47
2019-03-17T08:45:27.365Z,2.60
2019-03-17T08:47:58.121Z,2.37
2019-03-17T08:50:26.421Z,2.53
2019-03-17T08:52:55.148Z,2.57
2019-03-17T08:55:24.215Z,2.40
2019-03-17T08:57:53.702Z,1.50
2019-03-17T09:00:22.751Z,1.33
2019-03-17T09:02:51.633Z,0.73
2019-03-17T09:05:20.213Z,1.50
2019-03-17T09:07:48.815Z,1.27
2019-03-17T09:10:17.548Z,1.13
2019-03-17T09:12:46.250Z,1.30
2019-03-17T09:15:14.936Z,1.43
2019-03-17T09:17:44.171Z,0.87
2019-03-17T09:20:12.880Z,1.20
2019-03-17T09:22:41.888Z,1.67
2019-03-17T09:25:10.659Z,0.87
2019-03-17T09:27:39.622Z,1.50
2019-03-17T09:30:10.205Z,1.10
2019-03-17T09:32:39.153Z,1.40
2019-03-17T09:35:08.609Z,1.10
2019-03-17T09:37:37.859Z,1.27
2019-03-17T09:40:07.777Z,1.27
2019-03-17T09:42:36.767Z,1.27
2019-03-17T09:45:06.096Z,1.40
2019-03-17T09:47:35.060Z,0.80
2019-03-17T09:50:03.864Z,1.13
2019-03-17T09:52:33.053Z,0.93
2019-03-17T09:55:02.247Z,1.23
2019-03-17T09:57:31.548Z,1.70
2019-03-17T10:00:00.262Z,1.57
2019-03-17T10:02:28.882Z,1.30
2019-03-17T10:04:57.795Z,1.60
2019-03-17T10:07:26.417Z,1.20
2019-03-17T10:09:55.393Z,1.23
2019-03-17T10:12:24.557Z,0.90
2019-03-17T10:14:53.201Z,1.13
2019-03-17T10:17:21.838Z,1.33
2019-03-17T10:19:51.367Z,1.40
2019-03-17T10:22:20.034Z,1.50
2019-03-17T10:24:48.657Z,1.40
2019-03-17T10:27:17.941Z,1.60
2019-03-17T10:29:47.240Z,1.13
2019-03-17T10:32:16.441Z,1.60
2019-03-17T10:34:45.430Z,1.83
2019-03-17T10:37:14.101Z,1.43
2019-03-17T10:39:43.017Z,1.30
2019-03-17T10:42:11.661Z,1.57
2019-03-17T10:44:40.897Z,1.63
2019-03-17T10:47:10.175Z,1.30
2019-03-17T10:49:38.846Z,1.40
2019-03-17T10:52:07.488Z,1.70
2019-03-17T10:54:36.121Z,1.37
2019-03-17T10:57:04.703Z,1.57
2019-03-17T10:59:33.362Z,2.20
2019-03-17T11:02:01.993Z,1.37
2019-03-17T11:04:30.906Z,1.70
2019-03-17T11:06:59.896Z,1.33
2019-03-17T11:09:28.784Z,1.87
2019-03-17T11:11:57.392Z,1.50
2019-03-17T11:14:26.670Z,1.47
2019-03-17T11:16:55.563Z,1.77
2019-03-17T11:19:25.656Z,1.60
2019-03-17T11:21:54.980Z,1.20
2019-03-17T11:24:23.877Z,1.80
2019-03-17T11:26:55.605Z,2.20
2019-03-17T11:29:23.487Z,1.67
2019-03-17T11:31:53.111Z,1.73
2019-03-17T11:34:21.743Z,1.70
2019-03-17T11:36:51.097Z,1.40
2019-03-17T11:39:20.293Z,1.67
2019-03-17T11:41:49.270Z,2.00
2019-03-17T11:44:17.935Z,1.43
2019-03-17T11:46:46.586Z,1.77
2019-03-17T11:49:15.781Z,1.37
2019-03-17T11:51:45.078Z,1.97
2019-03-17T11:54:13.721Z,1.70
2019-03-17T11:56:42.644Z,1.60
2019-03-17T11:59:11.279Z,1.90
2019-03-17T12:01:39.886Z,1.40
2019-03-17T12:04:08.792Z,1.90
2019-03-17T12:06:37.433Z,1.77
2019-03-17T12:09:07.677Z,1.40
2019-03-17T12:11:36.369Z,1.37
2019-03-17T12:14:05.077Z,1.43
2019-03-17T12:16:34.291Z,1.77
2019-03-17T12:19:02.911Z,2.33
2019-03-17T12:21:31.875Z,1.73
2019-03-17T12:24:00.848Z,1.70
2019-03-17T12:26:29.457Z,1.07
2019-03-17T12:28:58.342Z,1.43
2019-03-17T12:31:27.212Z,1.30
2019-03-17T12:33:56.104Z,1.50
2019-03-17T12:36:24.995Z,1.20
2019-03-17T12:38:53.886Z,1.30
2019-03-17T12:41:22.525Z,1.37
2019-03-17T12:43:51.776Z,1.33
2019-03-17T12:46:20.387Z,1.67
2019-03-17T12:48:49.666Z,1.20
2019-03-17T12:51:18.553Z,1.83
2019-03-17T12:53:47.443Z,1.77
2019-03-17T12:56:16.635Z,1.40
2019-03-17T12:58:45.531Z,1.47
2019-03-17T13:01:14.423Z,1.57
2019-03-17T13:03:43.060Z,1.30
2019-03-17T13:06:11.723Z,1.93
2019-03-17T13:08:40.581Z,1.23
2019-03-17T13:11:09.790Z,1.50
2019-03-17T13:13:38.418Z,1.10
2019-03-17T13:16:07.100Z,1.47
2019-03-17T13:18:36.051Z,1.30
2019-03-17T13:21:04.914Z,1.10
2019-03-17T13:23:33.852Z,1.10
2019-03-17T13:26:02.526Z,1.43
2019-03-17T13:28:31.195Z,1.13
2019-03-17T13:30:59.835Z,1.00
2019-03-17T13:33:28.488Z,1.23
2019-03-17T13:35:57.506Z,1.47
2019-03-17T13:38:26.168Z,1.40
2019-03-17T13:40:55.152Z,1.37
2019-03-17T13:43:23.795Z,1.30
2019-03-17T13:45:52.431Z,1.50
2019-03-17T13:48:21.737Z,1.00
2019-03-17T13:50:50.388Z,1.03
2019-03-17T13:53:18.991Z,1.10
2019-03-17T13:55:47.632Z,1.57
2019-03-17T13:58:16.256Z,0.90
2019-03-17T14:00:45.150Z,1.40
2019-03-17T14:03:13.779Z,1.20
2019-03-17T14:05:43.049Z,1.07
2019-03-17T14:08:11.929Z,0.77
2019-03-17T14:10:41.598Z,0.97
2019-03-17T14:13:10.391Z,1.00
2019-03-17T14:15:39.003Z,0.87
2019-03-17T14:18:08.310Z,1.03
2019-03-17T14:20:37.539Z,1.00
2019-03-17T14:23:06.528Z,1.27
2019-03-17T14:25:35.716Z,1.50
2019-03-17T14:28:04.393Z,1.10
2019-03-17T14:30:33.395Z,1.37
2019-03-17T14:33:02.580Z,1.03
2019-03-17T14:35:31.225Z,1.10
2019-03-17T14:38:00.165Z,1.43
2019-03-17T14:40:28.811Z,1.33
2019-03-17T14:42:57.803Z,1.20
2019-03-17T14:45:26.432Z,1.30
2019-03-17T14:47:55.393Z,1.30
2019-03-17T14:50:25.326Z,0.90
2019-03-17T14:52:53.950Z,1.20
2019-03-17T14:55:23.218Z,1.10
2019-03-17T14:57:52.732Z,0.80
2019-03-17T15:00:21.387Z,0.80
2019-03-17T15:02:50.206Z,1.27
2019-03-17T15:05:19.156Z,1.30
2019-03-17T15:07:47.766Z,0.97
2019-03-17T15:10:17.560Z,0.87
2019-03-17T15:12:46.595Z,1.10
2019-03-17T15:15:16.360Z,1.00
2019-03-17T15:17:45.413Z,0.80
2019-03-17T15:20:15.900Z,1.20
2019-03-17T15:22:44.810Z,0.77
2019-03-17T15:25:13.602Z,1.30
2019-03-17T15:27:42.476Z,1.17
2019-03-17T15:30:16.605Z,1.00
2019-03-17T15:32:45.598Z,1.10
2019-03-17T15:35:14.593Z,0.90
2019-03-17T15:37:43.314Z,1.00
2019-03-17T15:40:12.950Z,1.07
2019-03-17T15:42:42.033Z,1.00
2019-03-17T15:45:12.919Z,1.20
2019-03-17T15:47:41.545Z,1.10
2019-03-17T15:50:11.482Z,1.20
2019-03-17T15:52:40.091Z,1.00
2019-03-17T15:55:09.868Z,1.30
2019-03-17T15:57:38.911Z,1.10
2019-03-17T16:00:23.751Z,1.50
2019-03-17T16:02:41.164Z,1.60
2019-03-17T16:05:09.903Z,1.63
2019-03-17T16:07:42.454Z,1.47
2019-03-17T16:10:10.198Z,1.57
2019-03-17T16:12:38.898Z,1.13
2019-03-17T16:15:08.504Z,1.73
2019-03-17T16:17:37.419Z,2.10
2019-03-17T16:20:06.716Z,1.37
2019-03-17T16:22:35.716Z,1.53
2019-03-17T16:25:04.775Z,1.40
2019-03-17T16:27:33.700Z,1.30
2019-03-17T16:30:02.570Z,1.40
2019-03-17T16:32:31.495Z,1.10
2019-03-17T16:35:00.447Z,1.10
2019-03-17T16:37:29.134Z,1.10
2019-03-17T16:39:58.092Z,1.27
2019-03-17T16:42:26.723Z,1.20
2019-03-17T16:44:55.937Z,0.97
2019-03-17T16:47:24.846Z,1.17
2019-03-17T16:49:54.028Z,1.40
2019-03-17T16:52:22.680Z,1.33
2019-03-17T16:54:51.583Z,1.30
2019-03-17T16:57:20.476Z,1.40
2019-03-17T16:59:49.491Z,1.30
2019-03-17T17:02:18.707Z,1.23
2019-03-17T17:04:47.814Z,1.40
2019-03-17T17:07:17.434Z,1.03
2019-03-17T17:09:46.601Z,1.27
2019-03-17T17:12:15.772Z,1.20
2019-03-17T17:14:44.691Z,1.53
2019-03-17T17:17:13.571Z,1.20
2019-03-17T17:19:42.882Z,1.57
2019-03-17T17:22:11.527Z,1.50
2019-03-17T17:24:40.437Z,1.00
2019-03-17T17:27:09.052Z,1.70
2019-03-17T17:29:37.939Z,1.40
2019-03-17T17:32:06.603Z,1.47
2019-03-17T17:34:35.239Z,1.27
2019-03-17T17:37:03.941Z,1.43
2019-03-17T17:39:32.575Z,1.23
2019-03-17T17:42:09.037Z,1.50
2019-03-17T17:44:31.597Z,0.80
2019-03-17T17:47:00.203Z,0.83
2019-03-17T17:49:30.286Z,0.80
2019-03-17T17:51:59.283Z,0.90
2019-03-17T17:54:27.966Z,1.50
2019-03-17T17:56:56.960Z,1.27
2019-03-17T17:59:25.594Z,1.40
2019-03-17T18:01:54.275Z,1.10
2019-03-17T18:04:22.938Z,1.13
2019-03-17T18:06:51.912Z,1.40
2019-03-17T18:09:21.115Z,1.27
2019-03-17T18:11:49.758Z,1.43
2019-03-17T18:14:19.098Z,1.73
2019-03-17T18:16:47.989Z,1.80
2019-03-17T18:19:17.006Z,1.40
2019-03-17T18:21:45.977Z,1.80
2019-03-17T18:24:14.590Z,1.87
2019-03-17T18:26:43.560Z,1.80
2019-03-17T18:29:12.581Z,1.90
2019-03-17T18:31:41.547Z,1.73
2019-03-17T18:34:10.526Z,1.97
2019-03-17T18:36:39.210Z,1.80
2019-03-17T18:39:08.234Z,1.90
2019-03-17T18:41:36.853Z,2.00
2019-03-17T18:44:06.031Z,1.97
2019-03-17T18:46:38.030Z,2.07
2019-03-17T18:49:07.077Z,1.87
2019-03-17T18:51:35.726Z,1.40
2019-03-17T18:54:05.615Z,1.57
2019-03-17T18:56:34.767Z,2.10
2019-03-17T18:59:03.435Z,3.10
2019-03-17T19:01:32.355Z,1.47
2019-03-17T19:04:01.329Z,2.37
2019-03-17T19:06:30.257Z,1.63
2019-03-17T19:08:58.881Z,2.10
2019-03-17T19:11:27.550Z,1.67
2019-03-17T19:13:56.791Z,1.60
2019-03-17T19:16:25.408Z,2.10
2019-03-17T19:18:54.373Z,1.87
2019-03-17T19:21:23.037Z,1.90
2019-03-17T19:23:51.945Z,1.70
2019-03-17T19:26:20.574Z,2.00
2019-03-17T19:28:49.517Z,1.80
2019-03-17T19:31:19.851Z,2.27
2019-03-17T19:33:48.502Z,1.80
2019-03-17T19:36:17.438Z,1.63
2019-03-17T19:38:46.335Z,2.20
2019-03-17T19:41:14.956Z,1.97
2019-03-17T19:43:43.618Z,2.10
2019-03-17T19:46:12.595Z,2.20
2019-03-17T19:48:41.241Z,2.17
2019-03-17T19:51:10.690Z,1.60
2019-03-17T19:53:39.669Z,2.03
2019-03-17T19:56:08.608Z,2.03
2019-03-17T19:58:37.202Z,2.10
2019-03-17T20:01:06.186Z,1.70
2019-03-17T20:03:35.129Z,1.90
2019-03-17T20:06:04.113Z,1.40
2019-03-17T20:08:33.146Z,1.67
2019-03-17T20:11:02.019Z,2.10
2019-03-17T20:13:30.658Z,1.33
2019-03-17T20:15:59.609Z,1.70
2019-03-17T20:18:28.586Z,1.70
2019-03-17T20:20:57.555Z,2.33
2019-03-17T20:23:26.962Z,2.07
2019-03-17T20:25:56.007Z,1.97
2019-03-17T20:28:24.968Z,1.70
2019-03-17T20:30:53.574Z,1.90
2019-03-17T20:33:22.296Z,1.90
2019-03-17T20:35:51.208Z,2.00
2019-03-17T20:38:20.124Z,1.90
2019-03-17T20:40:48.971Z,1.87
2019-03-17T20:43:29.042Z,2.07
2019-03-17T20:45:48.594Z,2.03
2019-03-17T20:48:17.772Z,2.20
2019-03-17T20:50:46.394Z,2.10
2019-03-17T20:53:15.119Z,7.03
2019-03-17T20:55:43.997Z,2.30
2019-03-17T20:58:13.190Z,2.17
2019-03-17T21:00:41.893Z,1.90
2019-03-17T21:03:10.876Z,2.03
2019-03-17T21:05:39.871Z,2.20
2019-03-17T21:08:08.788Z,2.33
2019-03-17T21:10:37.468Z,1.57
2019-03-17T21:13:06.325Z,1.93
2019-03-17T21:15:35.334Z,1.70
2019-03-17T21:18:04.318Z,2.10
2019-03-17T21:20:33.634Z,1.67
2019-03-17T21:23:02.932Z,2.03
2019-03-17T21:25:31.819Z,1.43
2019-03-17T21:28:01.291Z,1.50
2019-03-17T21:30:30.235Z,1.40
2019-03-17T21:32:58.924Z,2.07
2019-03-17T21:35:28.500Z,1.90
2019-03-17T21:37:57.517Z,2.57
2019-03-17T21:40:26.174Z,1.87
2019-03-17T21:42:56.034Z,2.00
2019-03-17T21:45:27.269Z,1.67
2019-03-17T21:47:55.273Z,1.40
2019-03-17T21:50:23.916Z,2.10
2019-03-17T21:52:52.606Z,1.80
2019-03-17T21:55:21.793Z,1.40
2019-03-17T21:57:50.732Z,1.73
2019-03-17T22:00:20.087Z,1.47
2019-03-17T22:02:48.829Z,1.50
2019-03-17T22:05:17.739Z,1.67
2019-03-17T22:07:51.126Z,1.63
2019-03-17T22:10:16.898Z,1.50
2019-03-17T22:12:45.756Z,2.37
2019-03-17T22:15:14.486Z,1.53
2019-03-17T22:17:43.380Z,2.00
2019-03-17T22:20:12.098Z,1.77
2019-03-17T22:22:40.726Z,2.10
2019-03-17T22:25:09.521Z,1.70
2019-03-17T22:27:38.183Z,1.73
2019-03-17T22:30:08.184Z,1.53
2019-03-17T22:32:36.825Z,1.33
2019-03-17T22:35:06.216Z,2.03
2019-03-17T22:37:35.218Z,2.00
2019-03-17T22:40:04.502Z,1.80
2019-03-17T22:42:33.802Z,1.50
2019-03-17T22:45:02.999Z,1.53
2019-03-17T22:47:31.598Z,2.27
2019-03-17T22:50:00.364Z,2.07
2019-03-17T22:52:29.572Z,1.50
2019-03-17T22:54:58.887Z,2.00
2019-03-17T22:57:28.490Z,1.20
2019-03-17T22:59:57.677Z,1.30
2019-03-17T23:02:26.383Z,2.03
2019-03-17T23:04:55.045Z,1.07
2019-03-17T23:07:23.693Z,2.00
2019-03-17T23:09:52.637Z,2.23
2019-03-17T23:12:21.359Z,1.73
2019-03-17T23:14:50.315Z,2.00
2019-03-17T23:17:18.935Z,2.03
2019-03-17T23:19:47.597Z,1.43
2019-03-17T23:22:16.216Z,1.60
2019-03-17T23:24:44.874Z,1.97
2019-03-17T23:27:13.606Z,1.00
2019-03-17T23:29:42.282Z,1.60
2019-03-17T23:32:11.219Z,1.20
2019-03-17T23:34:40.731Z,1.50
2019-03-17T23:37:09.736Z,1.60
2019-03-17T23:39:38.454Z,1.30
2019-03-17T23:42:07.400Z,1.50
2019-03-17T23:44:48.290Z,1.87
2019-03-17T23:47:07.061Z,1.40
2019-03-17T23:49:36.019Z,1.60
2019-03-17T23:52:04.724Z,1.50
2019-03-17T23:54:35.947Z,1.03
2019-03-17T23:57:04.650Z,1.20
2019-03-17T23:59:34.244Z,1.80
